Sigas Ingrid — VRCQ6 — position and weather

sailwx.info

Track history (hours):
 
Tides and Currents Weather Stations Pressure Air Temp Water Temp Dewpoint Dewpoint Depression Visibility Wind Speed Wind Dir Waves Ship Positions

Sigas Ingrid

Last reported at 2014-Sep-12 04:27 UTC. Time now 2014-Sep-16 15:28 UTC.
Position N 35°43' E 014°55'.

Length 100 m; draft 5.5 m.

Type: Ship (hazmat cat B). MMSI: 477658800.

Date/timePositionNaut miles runAvg speedWind from/ knotsBaromVisibWave heightAir tempDewpointWater temp
2014-Sep-12 04:27N 35°43' E 014°55'1111.9
2014-Sep-12 03:34N 35°40' E 014°43'1212.1
2014-Sep-12 02:33N 35°38' E 014°28'8712.1
2014-Sep-11 19:20N 35°02' E 012°50'151 2.9
2014-Sep-09 15:32N 33°55' E 010°06'5 0.2
2014-Sep-08 13:24N 33°59' E 010°09'0 0.0
2014-Sep-08 11:30N 33°59' E 010°09'20 1.3
2014-Sep-07 20:27N 34°06' E 010°31'1211.7
2014-Sep-07 19:25N 34°12' E 010°45'1211.6
2014-Sep-07 18:25N 34°17' E 010°57'1011.5
2014-Sep-07 17:33N 34°21' E 011°08'7412.1
2014-Sep-07 11:29N 34°54' E 012°28'1212.5
2014-Sep-07 10:33N 34°59' E 012°41'1712.3
2014-Sep-07 09:09N 35°06' E 013°00'912.1
2014-Sep-07 08:22N 35°09' E 013°11'1012.2
2014-Sep-07 07:33N 35°15' E 013°21'1212.2
2014-Sep-07 06:33N 35°20' E 013°34'4711.8
2014-Sep-07 02:33N 35°41' E 014°26'  
Track history (hours):
 
Tides and Currents Weather Stations Pressure Air Temp Water Temp Dewpoint Dewpoint Depression Visibility Wind Speed Wind Dir Waves Ship Positions

Sigas Ingrid

Last reported at 2014-Sep-12 04:27 UTC. Time now 2014-Sep-16 15:28 UTC.
Position N 35°43' E 014°55'.

Length 100 m; draft 5.5 m.

Type: Ship (hazmat cat B). MMSI: 477658800.

Date/timePositionNaut miles runAvg speedWind from/ knotsBaromVisibWave heightAir tempDewpointWater temp
2014-Sep-12 04:27N 35°43' E 014°55'1111.9
2014-Sep-12 03:34N 35°40' E 014°43'1212.1
2014-Sep-12 02:33N 35°38' E 014°28'8712.1
2014-Sep-11 19:20N 35°02' E 012°50'151 2.9
2014-Sep-09 15:32N 33°55' E 010°06'5 0.2
2014-Sep-08 13:24N 33°59' E 010°09'0 0.0
2014-Sep-08 11:30N 33°59' E 010°09'20 1.3
2014-Sep-07 20:27N 34°06' E 010°31'1211.7
2014-Sep-07 19:25N 34°12' E 010°45'1211.6
2014-Sep-07 18:25N 34°17' E 010°57'1011.5
2014-Sep-07 17:33N 34°21' E 011°08'7412.1
2014-Sep-07 11:29N 34°54' E 012°28'1212.5
2014-Sep-07 10:33N 34°59' E 012°41'1712.3
2014-Sep-07 09:09N 35°06' E 013°00'912.1
2014-Sep-07 08:22N 35°09' E 013°11'1012.2
2014-Sep-07 07:33N 35°15' E 013°21'1212.2
2014-Sep-07 06:33N 35°20' E 013°34'4711.8
2014-Sep-07 02:33N 35°41' E 014°26'  

Dump ship's entire track history